New Paltz, NY (12561)

7:41 PM EST on February 06, 2016 (GMT -0500)
SUNY New Paltz | | Change Station
CLOSE
Current Station
Personal Weather Station
Location: New Paltz, NY
Elevation: 322 ft
Nearby Weather Stations

Elev 322 ft 41.73 °N, 74.09 °W | Updated 3 minutes ago

Mostly Cloudy
Mostly Cloudy
35.2 °F
Feels Like 35 °F
N
2.9
Wind Variable Wind from SW
Gusts 8.0 mph

Today
High -- | Low -- °F
--% Chance of Precip.
Yesterday
High -- | Low -- °F
Precip. -- in
Pressure 30.25 in
Visibility 10.0 miles
Clouds Clear
Windchill 35 °F
Dew Point 22 °F
Humidity 57%
Rainfall 0.00 in
Snow Depth Not available.
7:03 AM 5:17 PM
Waning Crescent, 3% visible
METAR KPOU 062353Z AUTO 20004KT 10SM CLR 03/M08 A3025 RMK AO2 SLP241 T00331083 10067 20033 53004
Pressure 30.25 in
Visibility 10.0 miles
Clouds Clear
Windchill 35 °F
Dew Point 22 °F
Humidity 57%
Rainfall 0.00 in
Snow Depth Not available.
7:03 AM 5:17 PM
Waning Crescent, 3% visible
METAR KPOU 062353Z AUTO 20004KT 10SM CLR 03/M08 A3025 RMK AO2 SLP241 T00331083 10067 20033 53004

10-Day Weather Forecast

Almanac

Astronomy

Feb. 06, 2016 Rise Set
Actual Time
Civil Twilight
Nautical Twilight
Astronomical Twilight
Moon
Length of Visible Light
Length of Day
Tomorrow will be .
, % of the Moon is Illuminated

Today's Extremes

State Highs State Lows

Community

WunderPhotos

Upload Photos

1,891,110 photos uploaded!

WunderBlog® & News

Nearby

Air Quality

  Air Quality AQ Index Pollutant
Not available.

Snow Depth

Station Depth Elevation

Earthquake Activity

City Distance Mag. Time & Date
Minimum magnitude displayed is 2.5.

Coastal Water Temperatures

Place Temperature

Stations

Nearby Weather Stations

Station Location Temp. Windchill Dew Point Humidity Wind Precip. Elev Updated Type
                   

Watches & Warnings

There are currently no watches in effect.